Time,TemperatureF,DewpointF,PressureIn,WindDirection,WindDirectionDegrees,WindSpeedMPH,WindSpeedGustMPH,Humidity,HourlyPrecipIn,Conditions,Clouds,dailyrainin,SoftwareType,DateUTC
2013-03-20 00:04:00,33.3,33.1,30.17,North,-999,-999.0,-999.0,99,-99.99,,,-99.99,meteohub,2013-03-20 05:04:00,
2013-03-20 00:10:00,33.3,33.1,30.17,North,-999,-999.0,-999.0,99,-99.99,,,-99.99,meteohub,2013-03-20 05:10:00,
2013-03-20 00:16:00,33.3,33.1,30.18,North,-999,-999.0,-999.0,99,-99.99,,,-99.99,meteohub,2013-03-20 05:16:00,
2013-03-20 00:22:00,33.1,32.9,30.18,North,-999,-999.0,-999.0,99,-99.99,,,-99.99,meteohub,2013-03-20 05:22:00,
2013-03-20 00:27:00,33.1,32.9,30.18,North,-999,-999.0,-999.0,99,-99.99,,,-99.99,meteohub,2013-03-20 05:27:00,
2013-03-20 00:32:00,33.1,32.9,30.18,North,-999,-999.0,-999.0,99,-99.99,,,-99.99,meteohub,2013-03-20 05:32:00,
2013-03-20 00:37:00,33.4,33.3,30.18,North,-999,-999.0,-999.0,99,-99.99,,,-99.99,meteohub,2013-03-20 05:37:00,
2013-03-20 00:42:00,33.4,33.3,30.18,North,-999,-999.0,-999.0,99,-99.99,,,-99.99,meteohub,2013-03-20 05:42:00,
2013-03-20 00:47:00,33.6,33.4,30.18,North,-999,-999.0,-999.0,99,-99.99,,,-99.99,meteohub,2013-03-20 05:47:00,
2013-03-20 00:53:00,33.4,33.3,30.19,North,-999,-999.0,-999.0,99,-99.99,,,-99.99,meteohub,2013-03-20 05:53:00,
2013-03-20 00:59:00,33.6,33.4,30.18,North,-999,-999.0,-999.0,99,-99.99,,,-99.99,meteohub,2013-03-20 05:59:00,
2013-03-20 01:06:00,33.6,33.4,30.18,North,-999,-999.0,-999.0,99,-99.99,,,-99.99,meteohub,2013-03-20 06:06:00,
2013-03-20 01:12:00,33.6,33.4,30.19,North,-999,-999.0,-999.0,99,-99.99,,,-99.99,meteohub,2013-03-20 06:12:00,
2013-03-20 01:17:00,33.6,33.4,30.19,North,-999,-999.0,-999.0,99,-99.99,,,-99.99,meteohub,2013-03-20 06:17:00,
2013-03-20 01:24:00,33.4,33.3,30.19,North,-999,-999.0,-999.0,99,-99.99,,,-99.99,meteohub,2013-03-20 06:24:00,
2013-03-20 01:30:00,33.4,33.3,30.20,North,-999,-999.0,-999.0,99,-99.99,,,-99.99,meteohub,2013-03-20 06:30:00,
2013-03-20 01:36:00,33.6,33.4,30.20,North,-999,-999.0,-999.0,99,-99.99,,,-99.99,meteohub,2013-03-20 06:36:00,
2013-03-20 01:42:00,33.8,33.6,30.20,North,-999,-999.0,-999.0,99,-99.99,,,-99.99,meteohub,2013-03-20 06:42:00,
2013-03-20 01:47:00,33.8,33.6,30.20,North,-999,-999.0,-999.0,99,-99.99,,,-99.99,meteohub,2013-03-20 06:47:00,
2013-03-20 01:52:00,34.2,34.0,30.20,North,-999,-999.0,-999.0,99,-99.99,,,-99.99,meteohub,2013-03-20 06:52:00,
2013-03-20 01:57:00,34.2,34.0,30.21,North,-999,-999.0,-999.0,99,-99.99,,,-99.99,meteohub,2013-03-20 06:57:00,
2013-03-20 02:04:00,34.2,34.0,30.21,North,-999,-999.0,-999.0,99,-99.99,,,-99.99,meteohub,2013-03-20 07:04:00,
2013-03-20 02:10:00,34.0,33.8,30.21,North,-999,-999.0,-999.0,99,-99.99,,,-99.99,meteohub,2013-03-20 07:10:00,
2013-03-20 02:16:00,33.8,33.6,30.21,North,-999,-999.0,-999.0,99,-99.99,,,-99.99,meteohub,2013-03-20 07:16:00,
2013-03-20 02:22:00,33.8,33.6,30.21,North,-999,-999.0,-999.0,99,-99.99,,,-99.99,meteohub,2013-03-20 07:22:00,
2013-03-20 02:29:00,33.6,33.4,30.21,North,-999,-999.0,-999.0,99,-99.99,,,-99.99,meteohub,2013-03-20 07:29:00,
2013-03-20 02:35:00,33.6,33.1,30.22,North,-999,-999.0,-999.0,98,-99.99,,,-99.99,meteohub,2013-03-20 07:35:00,
2013-03-20 02:41:00,33.4,32.7,30.22,North,-999,-999.0,-999.0,97,-99.99,,,-99.99,meteohub,2013-03-20 07:41:00,
2013-03-20 02:47:00,33.3,32.2,30.22,North,-999,-999.0,-999.0,96,-99.99,,,-99.99,meteohub,2013-03-20 07:47:00,
2013-03-20 02:53:00,33.3,32.0,30.23,North,-999,-999.0,-999.0,95,-99.99,,,-99.99,meteohub,2013-03-20 07:53:00,
2013-03-20 02:59:00,33.1,31.5,30.22,North,-999,-999.0,-999.0,94,-99.99,,,-99.99,meteohub,2013-03-20 07:59:00,
2013-03-20 03:05:00,33.1,31.3,30.22,North,-999,-999.0,-999.0,93,-99.99,,,-99.99,meteohub,2013-03-20 08:05:00,
2013-03-20 03:11:00,32.9,31.1,30.23,North,-999,-999.0,-999.0,93,-99.99,,,-99.99,meteohub,2013-03-20 08:11:00,
2013-03-20 03:17:00,32.5,30.7,30.22,North,-999,-999.0,-999.0,93,-99.99,,,-99.99,meteohub,2013-03-20 08:17:00,
2013-03-20 03:22:00,32.5,30.7,30.22,North,-999,-999.0,-999.0,93,-99.99,,,-99.99,meteohub,2013-03-20 08:22:00,
2013-03-20 03:27:00,32.2,30.2,30.23,North,-999,-999.0,-999.0,92,-99.99,,,-99.99,meteohub,2013-03-20 08:27:00,
2013-03-20 03:33:00,32.0,29.1,30.23,North,-999,-999.0,-999.0,89,-99.99,,,-99.99,meteohub,2013-03-20 08:33:00,
2013-03-20 03:39:00,31.6,28.8,30.23,North,-999,-999.0,-999.0,89,-99.99,,,-99.99,meteohub,2013-03-20 08:39:00,
2013-03-20 03:45:00,31.3,28.2,30.22,North,-999,-999.0,-999.0,88,-99.99,,,-99.99,meteohub,2013-03-20 08:45:00,
2013-03-20 03:51:00,31.1,27.7,30.22,North,-999,-999.0,-999.0,87,-99.99,,,-99.99,meteohub,2013-03-20 08:51:00,
2013-03-20 03:57:00,30.9,27.0,30.23,North,-999,-999.0,-999.0,85,-99.99,,,-99.99,meteohub,2013-03-20 08:57:00,
2013-03-20 04:02:00,30.7,26.4,30.23,North,-999,-999.0,-999.0,84,-99.99,,,-99.99,meteohub,2013-03-20 09:02:00,
2013-03-20 04:10:00,30.6,25.7,30.23,North,-999,-999.0,-999.0,82,-99.99,,,-99.99,meteohub,2013-03-20 09:10:00,
2013-03-20 04:16:00,30.4,25.0,30.23,North,-999,-999.0,-999.0,80,-99.99,,,-99.99,meteohub,2013-03-20 09:16:00,
2013-03-20 04:22:00,30.2,23.9,30.23,North,-999,-999.0,-999.0,77,-99.99,,,-99.99,meteohub,2013-03-20 09:22:00,
2013-03-20 04:27:00,29.8,23.5,30.23,North,-999,-999.0,-999.0,77,-99.99,,,-99.99,meteohub,2013-03-20 09:27:00,
2013-03-20 04:34:00,29.7,23.0,30.24,North,-999,-999.0,-999.0,76,-99.99,,,-99.99,meteohub,2013-03-20 09:34:00,
2013-03-20 04:41:00,29.5,22.5,30.24,North,-999,-999.0,-999.0,75,-99.99,,,-99.99,meteohub,2013-03-20 09:41:00,
2013-03-20 04:47:00,29.3,22.3,30.23,North,-999,-999.0,-999.0,75,-99.99,,,-99.99,meteohub,2013-03-20 09:47:00,
2013-03-20 04:52:00,29.1,21.9,30.23,North,-999,-999.0,-999.0,74,-99.99,,,-99.99,meteohub,2013-03-20 09:52:00,
2013-03-20 04:59:00,28.9,20.7,30.24,North,-999,-999.0,-999.0,71,-99.99,,,-99.99,meteohub,2013-03-20 09:59:00,
2013-03-20 05:05:00,28.8,18.1,30.24,North,-999,-999.0,-999.0,64,-99.99,,,-99.99,meteohub,2013-03-20 10:05:00,
2013-03-20 05:12:00,28.4,17.4,30.25,North,-999,-999.0,-999.0,63,-99.99,,,-99.99,meteohub,2013-03-20 10:12:00,
2013-03-20 05:17:00,28.0,17.1,30.25,North,-999,-999.0,-999.0,63,-99.99,,,-99.99,meteohub,2013-03-20 10:17:00,
2013-03-20 05:24:00,27.9,16.5,30.25,North,-999,-999.0,-999.0,62,-99.99,,,-99.99,meteohub,2013-03-20 10:24:00,
2013-03-20 05:30:00,27.9,16.5,30.26,North,-999,-999.0,-999.0,62,-99.99,,,-99.99,meteohub,2013-03-20 10:30:00,
2013-03-20 05:36:00,27.7,17.4,30.26,North,-999,-999.0,-999.0,65,-99.99,,,-99.99,meteohub,2013-03-20 10:36:00,
2013-03-20 05:42:00,27.5,16.2,30.26,North,-999,-999.0,-999.0,62,-99.99,,,-99.99,meteohub,2013-03-20 10:42:00,
2013-03-20 05:49:00,27.3,14.2,30.27,North,-999,-999.0,-999.0,57,-99.99,,,-99.99,meteohub,2013-03-20 10:49:00,
2013-03-20 05:55:00,27.1,12.2,30.26,North,-999,-999.0,-999.0,53,-99.99,,,-99.99,meteohub,2013-03-20 10:55:00,
2013-03-20 06:01:00,27.1,12.2,30.27,North,-999,-999.0,-999.0,53,-99.99,,,-99.99,meteohub,2013-03-20 11:01:00,
2013-03-20 06:07:00,26.8,12.0,30.27,North,-999,-999.0,-999.0,53,-99.99,,,-99.99,meteohub,2013-03-20 11:07:00,
2013-03-20 06:13:00,26.8,11.5,30.27,North,-999,-999.0,-999.0,52,-99.99,,,-99.99,meteohub,2013-03-20 11:13:00,
2013-03-20 06:20:00,26.6,11.3,30.27,North,-999,-999.0,-999.0,52,-99.99,,,-99.99,meteohub,2013-03-20 11:20:00,
2013-03-20 06:26:00,26.4,12.0,30.28,North,-999,-999.0,-999.0,54,-99.99,,,-99.99,meteohub,2013-03-20 11:26:00,
2013-03-20 06:32:00,26.4,12.0,30.27,North,-999,-999.0,-999.0,54,-99.99,,,-99.99,meteohub,2013-03-20 11:32:00,
2013-03-20 06:38:00,26.2,12.7,30.28,North,-999,-999.0,-999.0,56,-99.99,,,-99.99,meteohub,2013-03-20 11:38:00,
2013-03-20 06:44:00,26.1,12.9,30.28,North,-999,-999.0,-999.0,57,-99.99,,,-99.99,meteohub,2013-03-20 11:44:00,
2013-03-20 06:50:00,25.7,12.9,30.28,North,-999,-999.0,-999.0,58,-99.99,,,-99.99,meteohub,2013-03-20 11:50:00,
2013-03-20 06:57:00,25.5,12.4,30.29,North,-999,-999.0,-999.0,57,-99.99,,,-99.99,meteohub,2013-03-20 11:57:00,
2013-03-20 07:03:00,25.5,12.0,30.29,North,-999,-999.0,-999.0,56,-99.99,,,-99.99,meteohub,2013-03-20 12:03:00,
2013-03-20 07:09:00,25.3,11.8,30.30,North,-999,-999.0,-999.0,56,-99.99,,,-99.99,meteohub,2013-03-20 12:09:00,
2013-03-20 07:15:00,25.2,11.7,30.29,North,-999,-999.0,-999.0,56,-99.99,,,-99.99,meteohub,2013-03-20 12:15:00,
2013-03-20 07:21:00,25.0,10.2,30.29,North,-999,-999.0,-999.0,53,-99.99,,,-99.99,meteohub,2013-03-20 12:21:00,
2013-03-20 07:27:00,24.8,9.7,30.30,North,-999,-999.0,-999.0,52,-99.99,,,-99.99,meteohub,2013-03-20 12:27:00,
2013-03-20 07:32:00,24.8,9.7,30.30,North,-999,-999.0,-999.0,52,-99.99,,,-99.99,meteohub,2013-03-20 12:32:00,
2013-03-20 07:37:00,24.6,10.8,30.30,North,-999,-999.0,-999.0,55,-99.99,,,-99.99,meteohub,2013-03-20 12:37:00,
2013-03-20 07:43:00,24.4,10.6,30.30,North,-999,-999.0,-999.0,55,-99.99,,,-99.99,meteohub,2013-03-20 12:43:00,
2013-03-20 07:49:00,25.0,9.9,30.30,North,-999,-999.0,-999.0,52,-99.99,,,-99.99,meteohub,2013-03-20 12:49:00,
2013-03-20 07:55:00,25.5,10.4,30.30,North,-999,-999.0,-999.0,52,-99.99,,,-99.99,meteohub,2013-03-20 12:55:00,
2013-03-20 08:01:00,25.3,8.4,30.31,North,-999,-999.0,-999.0,48,-99.99,,,-99.99,meteohub,2013-03-20 13:01:00,
2013-03-20 08:07:00,25.3,9.3,30.30,North,-999,-999.0,-999.0,50,-99.99,,,-99.99,meteohub,2013-03-20 13:07:00,
2013-03-20 08:12:00,25.7,10.0,30.31,North,-999,-999.0,-999.0,51,-99.99,,,-99.99,meteohub,2013-03-20 13:12:00,
2013-03-20 08:20:00,25.9,10.2,30.31,North,-999,-999.0,-999.0,51,-99.99,,,-99.99,meteohub,2013-03-20 13:20:00,
2013-03-20 08:26:00,25.9,10.8,30.31,North,-999,-999.0,-999.0,52,-99.99,,,-99.99,meteohub,2013-03-20 13:26:00,
2013-03-20 08:32:00,25.9,11.1,30.31,North,-999,-999.0,-999.0,53,-99.99,,,-99.99,meteohub,2013-03-20 13:32:00,
2013-03-20 08:37:00,25.9,11.5,30.32,North,-999,-999.0,-999.0,54,-99.99,,,-99.99,meteohub,2013-03-20 13:37:00,
2013-03-20 08:44:00,26.1,11.3,30.31,North,-999,-999.0,-999.0,53,-99.99,,,-99.99,meteohub,2013-03-20 13:44:00,
2013-03-20 08:51:00,26.2,11.8,30.31,North,-999,-999.0,-999.0,54,-99.99,,,-99.99,meteohub,2013-03-20 13:51:00,
2013-03-20 08:57:00,25.9,11.5,30.32,North,-999,-999.0,-999.0,54,-99.99,,,-99.99,meteohub,2013-03-20 13:57:00,
2013-03-20 09:02:00,26.2,11.8,30.31,North,-999,-999.0,-999.0,54,-99.99,,,-99.99,meteohub,2013-03-20 14:02:00,
2013-03-20 09:09:00,26.4,12.0,30.31,North,-999,-999.0,-999.0,54,-99.99,,,-99.99,meteohub,2013-03-20 14:09:00,
2013-03-20 09:15:00,27.1,12.7,30.32,North,-999,-999.0,-999.0,54,-99.99,,,-99.99,meteohub,2013-03-20 14:15:00,
2013-03-20 09:22:00,27.9,12.9,30.32,North,-999,-999.0,-999.0,53,-99.99,,,-99.99,meteohub,2013-03-20 14:22:00,
2013-03-20 09:27:00,28.2,13.3,30.32,North,-999,-999.0,-999.0,53,-99.99,,,-99.99,meteohub,2013-03-20 14:27:00,
2013-03-20 09:34:00,27.5,11.7,30.33,North,-999,-999.0,-999.0,51,-99.99,,,-99.99,meteohub,2013-03-20 14:34:00,
2013-03-20 09:40:00,27.3,11.1,30.32,North,-999,-999.0,-999.0,50,-99.99,,,-99.99,meteohub,2013-03-20 14:40:00,
2013-03-20 09:46:00,28.2,12.4,30.32,North,-999,-999.0,-999.0,51,-99.99,,,-99.99,meteohub,2013-03-20 14:46:00,
2013-03-20 09:52:00,29.3,12.6,30.32,North,-999,-999.0,-999.0,49,-99.99,,,-99.99,meteohub,2013-03-20 14:52:00,
2013-03-20 09:58:00,30.2,13.3,30.32,North,-999,-999.0,-999.0,49,-99.99,,,-99.99,meteohub,2013-03-20 14:58:00,
2013-03-20 10:04:00,30.2,12.4,30.32,North,-999,-999.0,-999.0,47,-99.99,,,-99.99,meteohub,2013-03-20 15:04:00,
2013-03-20 10:11:00,29.5,11.3,30.32,North,-999,-999.0,-999.0,46,-99.99,,,-99.99,meteohub,2013-03-20 15:11:00,
2013-03-20 10:17:00,29.3,11.5,30.32,North,-999,-999.0,-999.0,47,-99.99,,,-99.99,meteohub,2013-03-20 15:17:00,
2013-03-20 10:23:00,30.4,11.7,30.32,North,-999,-999.0,-999.0,45,-99.99,,,-99.99,meteohub,2013-03-20 15:23:00,
2013-03-20 10:30:00,30.9,12.0,30.32,North,-999,-999.0,-999.0,45,-99.99,,,-99.99,meteohub,2013-03-20 15:30:00,
2013-03-20 10:36:00,31.8,12.4,30.32,North,-999,-999.0,-999.0,44,-99.99,,,-99.99,meteohub,2013-03-20 15:36:00,
2013-03-20 10:42:00,32.9,14.4,30.32,North,-999,-999.0,-999.0,46,-99.99,,,-99.99,meteohub,2013-03-20 15:42:00,
2013-03-20 10:48:00,32.9,11.3,30.32,North,-999,-999.0,-999.0,40,-99.99,,,-99.99,meteohub,2013-03-20 15:48:00,
2013-03-20 10:55:00,32.0,11.5,30.32,North,-999,-999.0,-999.0,42,-99.99,,,-99.99,meteohub,2013-03-20 15:55:00,
2013-03-20 11:01:00,31.5,10.9,30.32,North,-999,-999.0,-999.0,42,-99.99,,,-99.99,meteohub,2013-03-20 16:01:00,
2013-03-20 11:07:00,32.4,11.3,30.32,North,-999,-999.0,-999.0,41,-99.99,,,-99.99,meteohub,2013-03-20 16:07:00,
2013-03-20 11:14:00,32.4,11.3,30.32,North,-999,-999.0,-999.0,41,-99.99,,,-99.99,meteohub,2013-03-20 16:14:00,
2013-03-20 11:20:00,32.4,9.5,30.32,North,-999,-999.0,-999.0,38,-99.99,,,-99.99,meteohub,2013-03-20 16:20:00,
2013-03-20 11:26:00,32.5,7.9,30.32,North,-999,-999.0,-999.0,35,-99.99,,,-99.99,meteohub,2013-03-20 16:26:00,
2013-03-20 11:32:00,32.4,9.0,30.32,North,-999,-999.0,-999.0,37,-99.99,,,-99.99,meteohub,2013-03-20 16:32:00,
2013-03-20 11:39:00,33.8,12.0,30.32,North,-999,-999.0,-999.0,40,-99.99,,,-99.99,meteohub,2013-03-20 16:39:00,
2013-03-20 11:45:00,35.1,13.1,30.32,North,-999,-999.0,-999.0,40,-99.99,,,-99.99,meteohub,2013-03-20 16:45:00,
2013-03-20 11:51:00,34.2,11.8,30.32,North,-999,-999.0,-999.0,39,-99.99,,,-99.99,meteohub,2013-03-20 16:51:00,
2013-03-20 11:57:00,34.0,9.9,30.32,North,-999,-999.0,-999.0,36,-99.99,,,-99.99,meteohub,2013-03-20 16:57:00,
2013-03-20 12:03:00,33.4,11.7,30.31,North,-999,-999.0,-999.0,40,-99.99,,,-99.99,meteohub,2013-03-20 17:03:00,
2013-03-20 12:09:00,34.2,12.9,30.30,North,-999,-999.0,-999.0,41,-99.99,,,-99.99,meteohub,2013-03-20 17:09:00,
2013-03-20 12:15:00,34.9,12.4,30.31,North,-999,-999.0,-999.0,39,-99.99,,,-99.99,meteohub,2013-03-20 17:15:00,
2013-03-20 12:21:00,35.2,12.2,30.31,North,-999,-999.0,-999.0,38,-99.99,,,-99.99,meteohub,2013-03-20 17:21:00,
2013-03-20 12:27:00,36.0,12.7,30.31,North,-999,-999.0,-999.0,38,-99.99,,,-99.99,meteohub,2013-03-20 17:27:00,
2013-03-20 12:33:00,35.1,10.2,30.31,North,-999,-999.0,-999.0,35,-99.99,,,-99.99,meteohub,2013-03-20 17:33:00,
2013-03-20 12:40:00,35.8,12.7,30.30,North,-999,-999.0,-999.0,38,-99.99,,,-99.99,meteohub,2013-03-20 17:40:00,
2013-03-20 12:46:00,35.6,9.3,30.30,North,-999,-999.0,-999.0,33,-99.99,,,-99.99,meteohub,2013-03-20 17:46:00,
2013-03-20 12:52:00,35.2,10.4,30.30,North,-999,-999.0,-999.0,35,-99.99,,,-99.99,meteohub,2013-03-20 17:52:00,
2013-03-20 12:57:00,36.0,9.7,30.30,North,-999,-999.0,-999.0,33,-99.99,,,-99.99,meteohub,2013-03-20 17:57:00,
2013-03-20 13:02:00,36.1,11.1,30.29,North,-999,-999.0,-999.0,35,-99.99,,,-99.99,meteohub,2013-03-20 18:02:00,
2013-03-20 13:07:00,36.0,7.5,30.29,North,-999,-999.0,-999.0,30,-99.99,,,-99.99,meteohub,2013-03-20 18:07:00,
2013-03-20 13:12:00,35.6,9.3,30.29,North,-999,-999.0,-999.0,33,-99.99,,,-99.99,meteohub,2013-03-20 18:12:00,
2013-03-20 13:17:00,36.1,9.9,30.29,North,-999,-999.0,-999.0,33,-99.99,,,-99.99,meteohub,2013-03-20 18:17:00,
2013-03-20 13:23:00,36.0,8.2,30.28,North,-999,-999.0,-999.0,31,-99.99,,,-99.99,meteohub,2013-03-20 18:23:00,
2013-03-20 13:30:00,36.0,6.8,30.28,North,-999,-999.0,-999.0,29,-99.99,,,-99.99,meteohub,2013-03-20 18:30:00,
2013-03-20 13:36:00,36.1,8.4,30.27,North,-999,-999.0,-999.0,31,-99.99,,,-99.99,meteohub,2013-03-20 18:36:00,
2013-03-20 13:42:00,36.1,7.7,30.27,North,-999,-999.0,-999.0,30,-99.99,,,-99.99,meteohub,2013-03-20 18:42:00,
2013-03-20 13:47:00,36.9,8.2,30.27,North,-999,-999.0,-999.0,30,-99.99,,,-99.99,meteohub,2013-03-20 18:47:00,
2013-03-20 13:52:00,37.6,7.3,30.27,North,-999,-999.0,-999.0,28,-99.99,,,-99.99,meteohub,2013-03-20 18:52:00,
2013-03-20 13:57:00,37.9,5.2,30.27,North,-999,-999.0,-999.0,25,-99.99,,,-99.99,meteohub,2013-03-20 18:57:00,
2013-03-20 14:02:00,37.8,7.5,30.26,North,-999,-999.0,-999.0,28,-99.99,,,-99.99,meteohub,2013-03-20 19:02:00,